Leavenworth, WA

1:27 PM PST on November 23, 2014 (GMT -0800)
Lake Wenatchee | Change Station
CLOSE
Current Station
Personal Weather Station
Location: Leavenworth, WA
Elevation: 1965 ft
Nearby Weather Stations

Elev 1965 ft 47.82 °N, 120.74 °W | Updated 13 seconds ago

Overcast
Overcast
34.7 °F
Feels Like 35 °F
N
0.0
Wind Variable Wind from North
Gusts 0.0 mph

Today
High -- | Low -- °F
--% Chance of Precip.
Yesterday
High -- | Low -- °F
Precip. -- in
7:20 AM 4:17 PM
New Moon, 2% visible
Pressure 30.06 in
Visibility 10.0 miles
Clouds Overcast 4400 ft
Windchill 35 °F
Dew Point 34 °F
Humidity 99%
Rainfall 0.14 in
Snow Depth Not available.
UV 0 out of 12
Pollen .10 out of 12
Air Quality Not available.
Flu Activity Not available.
METAR KEAT 232055Z AUTO 35005KT 10SM -RA OVC044 08/02 A3004 RMK AO2 RAE1959B43 SLP177 P0000 60000 T00780022 53003

More Conditions Fewer Conditions

Pressure 30.06 in
Visibility 10.0 miles
Clouds Overcast 4400 ft
Windchill 35 °F
Dew Point 34 °F
Humidity 99%
Rainfall 0.14 in
Snow Depth Not available.
UV 0 out of 12
Pollen .10 out of 12
Air Quality Not available.
Flu Activity Not available.
METAR KEAT 232055Z AUTO 35005KT 10SM -RA OVC044 08/02 A3004 RMK AO2 RAE1959B43 SLP177 P0000 60000 T00780022 53003

More Conditions Fewer Conditions

10-Day Weather Forecast

Almanac

Astronomy

Nov. 23, 2014 Rise Set
Actual Time
Civil Twilight
Nautical Twilight
Astronomical Twilight
Moon
Length of Visible Light
Length of Day
Tomorrow will be .
, % of the Moon is Illuminated

Today's Extremes

State Highs State Lows

Community

WunderPhotos

Upload Photos

1,773,181 photos uploaded!

WunderBlogs® & News

Nearby

Air Quality

  Air Quality AQ Index Pollutant
Not available.

Snow Depth

Station Depth Elevation

Earthquake Activity

City Distance Mag. Time & Date
Minimum magnitude displayed is 2.5.

Coastal Water Temperatures

Place Temperature

Nearby Weather Stations